Time;durP1;ratioP1;P1;durP2;ratioP2;P2;SDS_P1;SDS_P2;PMS_P1;PMS_P2;Temp;Humidity;BMP_temperature;BMP_pressure;BME280_temperature;BME280_humidity;BME280_pressure;Samples;Min_cycle;Max_cycle;Signal;HPM_P1;HPM_P2
2021/05/28 00:01:00;;;;;;;4.10;3.70;;;4.30;99.90;;;;;;2092819;28;20184;-68
2021/05/28 00:02:00;;;;;;;4.47;3.88;;;4.30;99.90;;;;;;2088420;28;20182;-69
2021/05/28 00:03:01;;;;;;;6.20;4.10;;;4.30;99.90;;;;;;2080321;28;20175;-68
2021/05/28 00:04:02;;;;;;;5.00;4.50;;;4.30;99.90;;;;;;2089673;28;20619;-69
2021/05/28 00:05:05;;;;;;;5.20;3.72;;;4.30;99.90;;;;;;2089795;28;20172;-69
2021/05/28 00:06:06;;;;;;;4.82;4.20;;;4.40;99.90;;;;;;2089811;28;20235;-68
2021/05/28 00:07:06;;;;;;;6.43;4.80;;;4.30;99.90;;;;;;2089501;28;20198;-69
2021/05/28 00:08:07;;;;;;;8.57;6.10;;;4.40;99.90;;;;;;2089187;28;20230;-68
2021/05/28 00:09:08;;;;;;;5.47;4.77;;;4.40;99.90;;;;;;2089813;28;20540;-68
2021/05/28 00:10:09;;;;;;;7.13;5.50;;;4.40;99.90;;;;;;2090026;28;20240;-69
2021/05/28 00:11:10;;;;;;;6.10;4.85;;;4.40;99.90;;;;;;2089049;28;20668;-69
2021/05/28 00:12:11;;;;;;;6.33;5.03;;;4.40;99.90;;;;;;2089351;28;20189;-68
2021/05/28 00:13:12;;;;;;;7.73;4.67;;;4.50;99.90;;;;;;2089937;28;20204;-68
2021/05/28 00:14:13;;;;;;;5.20;4.57;;;4.40;99.90;;;;;;2089220;28;20184;-68
2021/05/28 00:15:14;;;;;;;5.32;4.70;;;4.40;99.90;;;;;;2089320;28;20231;-68
2021/05/28 00:16:15;;;;;;;5.32;4.35;;;4.40;99.90;;;;;;2089810;28;20565;-68
2021/05/28 00:17:16;;;;;;;7.40;4.87;;;4.40;99.90;;;;;;2089957;28;20214;-69
2021/05/28 00:18:16;;;;;;;5.17;3.70;;;4.40;99.90;;;;;;2090473;28;20170;-69
2021/05/28 00:19:17;;;;;;;5.47;4.33;;;4.40;99.90;;;;;;2092712;28;20182;-69
2021/05/28 00:20:19;;;;;;;5.13;4.35;;;4.30;99.90;;;;;;2091223;28;20640;-68
2021/05/28 00:21:20;;;;;;;5.80;4.18;;;4.30;99.90;;;;;;2092409;28;20229;-68
2021/05/28 00:22:21;;;;;;;5.05;4.10;;;4.40;99.90;;;;;;2091937;28;20189;-68
2021/05/28 00:23:22;;;;;;;7.30;4.95;;;4.30;99.90;;;;;;2090048;28;20346;-69
2021/05/28 00:24:23;;;;;;;5.10;4.60;;;4.30;99.90;;;;;;2089337;28;20183;-69
2021/05/28 00:25:23;;;;;;;5.97;4.20;;;4.20;99.90;;;;;;2089386;28;20290;-68
2021/05/28 00:26:24;;;;;;;7.03;4.10;;;4.20;99.90;;;;;;2089635;28;20186;-68
2021/05/28 00:27:30;;;;;;;6.90;4.80;;;4.30;99.90;;;;;;2090776;28;20191;-68
2021/05/28 00:28:32;;;;;;;5.57;4.53;;;4.20;99.90;;;;;;2089368;28;20177;-68
2021/05/28 00:29:33;;;;;;;7.93;5.18;;;4.30;99.90;;;;;;2090831;28;20208;-68
2021/05/28 00:30:33;;;;;;;9.27;5.47;;;4.20;99.90;;;;;;2089975;28;20178;-68
2021/05/28 00:31:35;;;;;;;7.33;4.87;;;4.20;99.90;;;;;;2089709;28;20189;-68
2021/05/28 00:32:36;;;;;;;6.63;4.88;;;4.20;99.90;;;;;;2090033;28;20185;-68
2021/05/28 00:33:36;;;;;;;6.37;4.80;;;4.10;99.90;;;;;;2089831;28;20190;-68
2021/05/28 00:34:38;;;;;;;5.27;4.20;;;4.10;99.90;;;;;;2089769;28;20416;-68
2021/05/28 00:35:38;;;;;;;5.78;4.50;;;4.10;99.90;;;;;;2081122;28;20205;-68
2021/05/28 00:36:39;;;;;;;6.67;4.87;;;4.10;99.90;;;;;;2072831;28;20179;-68
2021/05/28 00:37:41;;;;;;;5.13;4.10;;;4.10;99.90;;;;;;2088909;28;20207;-68
2021/05/28 00:38:42;;;;;;;6.75;4.78;;;4.10;99.90;;;;;;2080644;28;20636;-68
2021/05/28 00:39:43;;;;;;;5.77;4.23;;;4.10;99.90;;;;;;2072993;28;20179;-68
2021/05/28 00:40:44;;;;;;;5.63;4.45;;;4.10;99.90;;;;;;2089677;28;20195;-67
2021/05/28 00:41:45;;;;;;;4.80;4.30;;;4.10;99.90;;;;;;2088707;28;20185;-68
2021/05/28 00:42:45;;;;;;;5.90;5.03;;;4.00;99.90;;;;;;2089000;28;20818;-67
2021/05/28 00:43:46;;;;;;;6.73;4.10;;;4.00;99.90;;;;;;2089424;28;20200;-67
2021/05/28 00:44:47;;;;;;;4.63;3.70;;;4.00;99.90;;;;;;2089799;28;20628;-68
2021/05/28 00:45:49;;;;;;;4.35;3.80;;;3.90;99.90;;;;;;2088848;28;20204;-67
2021/05/28 00:46:50;;;;;;;4.43;3.77;;;3.90;99.90;;;;;;2080821;28;20185;-67
2021/05/28 00:47:50;;;;;;;5.90;3.83;;;3.80;99.90;;;;;;2088814;28;20211;-68
2021/05/28 00:48:52;;;;;;;4.37;3.77;;;3.80;99.90;;;;;;2089482;28;20185;-67
2021/05/28 00:49:53;;;;;;;5.05;4.22;;;3.80;99.90;;;;;;2089654;28;20313;-68
2021/05/28 00:50:54;;;;;;;4.67;3.93;;;3.80;99.90;;;;;;2089817;28;20177;-68
2021/05/28 00:51:54;;;;;;;5.23;4.23;;;3.80;99.90;;;;;;2089289;28;20646;-67
2021/05/28 00:52:57;;;;;;;5.50;3.97;;;3.80;99.90;;;;;;2089844;28;20189;-67
2021/05/28 00:53:58;;;;;;;7.70;4.75;;;3.70;99.90;;;;;;2089928;28;20629;-67
2021/05/28 00:55:00;;;;;;;5.38;4.60;;;3.80;99.90;;;;;;2090483;28;20196;-68
2021/05/28 00:56:01;;;;;;;10.00;5.65;;;3.80;99.90;;;;;;2090302;28;20195;-68
2021/05/28 00:57:02;;;;;;;6.15;5.22;;;3.80;99.90;;;;;;2090056;28;20235;-69
2021/05/28 00:58:03;;;;;;;9.45;4.95;;;3.80;99.90;;;;;;2090909;28;20280;-69
2021/05/28 00:59:04;;;;;;;6.30;4.83;;;3.80;99.90;;;;;;2089122;28;20272;-68
2021/05/28 01:00:07;;;;;;;7.20;5.30;;;3.90;99.90;;;;;;2088830;28;20188;-68
2021/05/28 01:01:08;;;;;;;7.03;5.22;;;3.90;99.90;;;;;;2089023;28;20569;-68
2021/05/28 01:02:09;;;;;;;7.88;4.80;;;3.90;99.90;;;;;;2081184;28;20706;-68
2021/05/28 01:03:10;;;;;;;6.20;5.40;;;4.00;99.90;;;;;;2089521;28;20211;-68
2021/05/28 01:04:12;;;;;;;7.68;5.97;;;4.10;99.90;;;;;;2090624;28;20260;-68
2021/05/28 01:05:13;;;;;;;7.28;5.68;;;4.10;99.90;;;;;;2088950;28;20182;-68
2021/05/28 01:06:15;;;;;;;7.90;5.80;;;4.10;99.90;;;;;;2089993;28;20586;-68
2021/05/28 01:07:15;;;;;;;6.53;5.57;;;4.20;99.90;;;;;;2089676;28;20190;-68
2021/05/28 01:08:16;;;;;;;8.37;5.50;;;4.20;99.90;;;;;;2088853;28;20185;-68
2021/05/28 01:09:17;;;;;;;6.03;5.43;;;4.20;99.90;;;;;;2088951;28;20208;-68
2021/05/28 01:10:18;;;;;;;5.53;4.47;;;4.20;99.90;;;;;;2089021;28;20224;-68
2021/05/28 01:11:18;;;;;;;10.23;5.90;;;4.20;99.90;;;;;;2088578;28;20272;-68
2021/05/28 01:12:19;;;;;;;5.77;4.53;;;4.20;99.90;;;;;;2089536;28;20259;-68
2021/05/28 01:13:20;;;;;;;8.37;5.53;;;4.20;99.90;;;;;;2089473;28;20762;-68
2021/05/28 01:14:21;;;;;;;7.00;4.50;;;4.20;99.90;;;;;;2088872;28;20215;-68
2021/05/28 01:15:22;;;;;;;5.25;4.75;;;4.20;99.90;;;;;;2080561;28;20182;-68
2021/05/28 01:16:22;;;;;;;6.73;5.37;;;4.20;99.90;;;;;;2088976;28;20726;-68
2021/05/28 01:17:23;;;;;;;5.07;4.03;;;4.20;99.90;;;;;;2089290;28;20287;-68
2021/05/28 01:18:24;;;;;;;7.30;5.07;;;4.20;99.90;;;;;;2089386;28;20169;-68
2021/05/28 01:19:26;;;;;;;5.30;4.53;;;4.20;99.90;;;;;;2089974;28;20178;-68
2021/05/28 01:20:26;;;;;;;7.00;4.70;;;4.20;99.90;;;;;;2089036;28;20535;-68
2021/05/28 01:21:27;;;;;;;5.87;4.00;;;4.20;99.90;;;;;;2088477;28;20191;-68
2021/05/28 01:22:28;;;;;;;5.10;4.00;;;4.20;99.90;;;;;;2088972;28;20196;-69
2021/05/28 01:23:29;;;;;;;5.57;3.67;;;4.10;99.90;;;;;;2088849;28;20427;-68
2021/05/28 01:24:29;;;;;;;7.67;4.30;;;4.10;99.90;;;;;;2089023;28;20185;-68
2021/05/28 01:25:31;;;;;;;4.43;3.73;;;4.10;99.90;;;;;;2088828;28;20265;-68
2021/05/28 01:26:32;;;;;;;5.82;3.72;;;4.10;99.90;;;;;;2088971;28;20184;-68
2021/05/28 01:27:32;;;;;;;5.67;3.83;;;4.00;99.90;;;;;;2088546;28;20581;-68
2021/05/28 01:28:34;;;;;;;5.50;4.13;;;4.00;99.90;;;;;;2089715;28;20169;-68
2021/05/28 01:29:34;;;;;;;5.72;4.38;;;4.00;99.90;;;;;;2089133;28;20184;-68
2021/05/28 01:30:35;;;;;;;4.87;4.37;;;3.90;99.90;;;;;;2088815;28;20224;-67
2021/05/28 01:31:36;;;;;;;4.30;3.90;;;3.90;99.90;;;;;;2089028;28;20224;-67
2021/05/28 01:32:36;;;;;;;7.20;4.77;;;3.80;99.90;;;;;;2089147;28;20176;-67
2021/05/28 01:33:43;;;;;;;5.60;5.00;;;3.80;99.90;;;;;;2089250;28;20256;-68
2021/05/28 01:34:44;;;;;;;5.85;4.50;;;3.80;99.90;;;;;;2087895;28;20190;-68
2021/05/28 01:35:44;;;;;;;8.37;4.57;;;3.80;99.90;;;;;;2088715;28;20272;-67
2021/05/28 01:36:45;;;;;;;5.73;4.50;;;3.80;99.90;;;;;;2089353;28;20270;-68
2021/05/28 01:37:47;;;;;;;5.73;4.67;;;3.70;99.90;;;;;;2088620;28;20224;-68
2021/05/28 01:38:48;;;;;;;4.95;4.45;;;3.70;99.90;;;;;;2089301;28;20197;-67
2021/05/28 01:39:50;;;;;;;5.60;3.80;;;3.70;99.90;;;;;;2091871;28;20200;-68
2021/05/28 01:40:53;;;;;;;4.07;3.67;;;3.70;99.90;;;;;;2089403;28;20180;-68
2021/05/28 01:41:53;;;;;;;6.03;4.30;;;3.70;99.90;;;;;;2088427;28;20182;-67
2021/05/28 01:42:54;;;;;;;5.93;3.50;;;3.70;99.90;;;;;;2088849;28;20601;-67
2021/05/28 01:43:55;;;;;;;4.10;3.70;;;3.70;99.90;;;;;;2088535;28;20192;-67
2021/05/28 01:44:58;;;;;;;3.53;2.90;;;3.60;99.90;;;;;;2089657;28;20207;-70
2021/05/28 01:45:58;;;;;;;4.90;3.20;;;3.60;99.90;;;;;;2089389;28;20417;-69
2021/05/28 01:46:59;;;;;;;5.77;3.23;;;3.60;99.90;;;;;;2088728;28;20549;-69
2021/05/28 01:48:02;;;;;;;3.70;3.30;;;3.60;99.90;;;;;;2088643;28;20196;-68
2021/05/28 01:49:04;;;;;;;3.25;2.97;;;3.50;99.90;;;;;;2088692;28;20180;-69
2021/05/28 01:50:09;;;;;;;4.80;3.22;;;3.40;99.90;;;;;;2088763;28;20637;-67
2021/05/28 01:51:09;;;;;;;4.30;3.90;;;3.40;99.90;;;;;;2089164;28;20263;-67
2021/05/28 01:52:12;;;;;;;3.63;3.30;;;3.40;99.90;;;;;;2089062;28;20665;-67
2021/05/28 01:53:20;;;;;;;3.95;3.47;;;3.40;99.90;;;;;;2089117;28;20180;-68
2021/05/28 01:54:25;;;;;;;4.47;3.70;;;3.40;99.90;;;;;;2089218;28;20174;-68
2021/05/28 01:55:25;;;;;;;5.00;3.55;;;3.30;99.90;;;;;;2088980;28;20191;-67
2021/05/28 01:56:27;;;;;;;4.60;3.45;;;3.30;99.90;;;;;;2088702;28;20223;-67
2021/05/28 01:57:28;;;;;;;4.82;4.22;;;3.30;99.90;;;;;;2088414;28;20494;-67
2021/05/28 01:58:28;;;;;;;5.20;4.63;;;3.30;99.90;;;;;;2088802;28;21000;-68
2021/05/28 01:59:29;;;;;;;6.00;4.90;;;3.30;99.90;;;;;;2088654;28;20187;-67
2021/05/28 02:00:30;;;;;;;9.83;5.30;;;3.30;99.90;;;;;;2089254;28;20188;-68
2021/05/28 02:01:31;;;;;;;5.37;4.50;;;3.30;99.90;;;;;;2081682;28;20860;-67
2021/05/28 02:02:31;;;;;;;5.30;4.57;;;3.30;99.90;;;;;;2088484;28;20991;-68
2021/05/28 02:03:32;;;;;;;5.53;4.90;;;3.40;99.90;;;;;;2089282;28;20717;-67
2021/05/28 02:04:33;;;;;;;4.90;4.40;;;3.40;99.90;;;;;;2100183;28;20577;-68
2021/05/28 02:05:35;;;;;;;5.65;4.85;;;3.40;99.90;;;;;;2088681;28;20192;-68
2021/05/28 02:06:36;;;;;;;9.10;6.10;;;3.50;99.90;;;;;;2091153;28;20226;-68
2021/05/28 02:07:38;;;;;;;7.47;6.68;;;3.50;99.90;;;;;;2098706;28;20583;-68
2021/05/28 02:08:39;;;;;;;7.38;5.07;;;3.60;99.90;;;;;;2099126;28;20187;-68
2021/05/28 02:09:39;;;;;;;8.77;5.77;;;3.60;99.90;;;;;;2089125;28;20195;-68
2021/05/28 02:10:41;;;;;;;7.97;6.43;;;3.70;99.90;;;;;;2089767;28;20230;-70
2021/05/28 02:11:42;;;;;;;7.13;5.25;;;3.60;99.90;;;;;;2089144;28;20581;-68
2021/05/28 02:12:42;;;;;;;5.53;5.00;;;3.60;99.90;;;;;;2089469;28;20242;-67
2021/05/28 02:13:44;;;;;;;6.63;5.50;;;3.60;99.90;;;;;;2089308;28;20426;-68
2021/05/28 02:14:44;;;;;;;6.90;4.95;;;3.60;99.90;;;;;;2089613;28;20648;-68
2021/05/28 02:15:45;;;;;;;7.73;5.23;;;3.60;99.90;;;;;;2089232;28;20264;-68
2021/05/28 02:16:46;;;;;;;5.70;4.53;;;3.60;99.90;;;;;;2090724;28;20792;-68
2021/05/28 02:17:46;;;;;;;5.80;5.07;;;3.60;99.90;;;;;;2090659;28;20205;-68
2021/05/28 02:18:47;;;;;;;5.30;4.80;;;3.60;99.90;;;;;;2090841;28;20187;-68
2021/05/28 02:19:48;;;;;;;8.33;4.63;;;3.60;99.90;;;;;;2081806;28;20183;-68
2021/05/28 02:20:49;;;;;;;6.33;5.40;;;3.60;99.90;;;;;;2082035;28;20256;-67
2021/05/28 02:21:52;;;;;;;6.80;5.35;;;3.60;99.90;;;;;;2090897;28;20187;-67
2021/05/28 02:22:53;;;;;;;6.57;4.72;;;3.60;99.90;;;;;;2090732;28;20183;-67
2021/05/28 02:23:55;;;;;;;7.10;5.27;;;3.60;99.90;;;;;;2090015;28;20683;-67
2021/05/28 02:24:55;;;;;;;6.55;4.68;;;3.60;99.90;;;;;;2090792;28;20450;-68
2021/05/28 02:25:56;;;;;;;6.73;5.00;;;3.60;99.90;;;;;;2091168;28;20176;-68
2021/05/28 02:26:57;;;;;;;5.63;4.70;;;3.60;99.90;;;;;;2090892;28;20183;-68
2021/05/28 02:27:58;;;;;;;5.90;4.23;;;3.60;99.90;;;;;;2091490;28;20235;-68
2021/05/28 02:28:59;;;;;;;6.25;4.00;;;3.60;99.90;;;;;;2083807;28;20183;-68
2021/05/28 02:30:00;;;;;;;4.30;3.90;;;3.50;99.90;;;;;;2091074;28;20687;-68
2021/05/28 02:31:00;;;;;;;6.20;5.40;;;3.50;99.90;;;;;;2090591;28;20620;-69
2021/05/28 02:32:01;;;;;;;6.27;5.00;;;3.50;99.90;;;;;;2090338;28;20183;-68
2021/05/28 02:33:02;;;;;;;8.40;5.37;;;3.40;99.90;;;;;;2090510;28;20184;-68
2021/05/28 02:34:03;;;;;;;6.07;5.03;;;3.40;99.90;;;;;;2090648;28;20180;-68
2021/05/28 02:35:07;;;;;;;5.07;4.30;;;3.40;99.90;;;;;;2090792;28;20184;-68
2021/05/28 02:36:08;;;;;;;7.10;5.07;;;3.40;99.90;;;;;;2090602;28;20195;-68
2021/05/28 02:37:09;;;;;;;6.95;5.35;;;3.40;99.90;;;;;;2090614;28;20207;-68
2021/05/28 02:38:10;;;;;;;8.30;5.40;;;3.40;99.90;;;;;;2090615;28;20188;-68
2021/05/28 02:39:10;;;;;;;6.53;5.20;;;3.40;99.90;;;;;;2090580;28;20747;-68
2021/05/28 02:40:12;;;;;;;6.93;5.33;;;3.50;99.90;;;;;;2090617;28;20185;-69
2021/05/28 02:41:13;;;;;;;5.25;4.45;;;3.40;99.90;;;;;;2090572;28;20183;-69
2021/05/28 02:42:14;;;;;;;4.93;4.40;;;3.40;99.90;;;;;;2090531;28;20759;-69
2021/05/28 02:43:15;;;;;;;7.80;4.90;;;3.50;99.90;;;;;;2090790;28;20177;-68
2021/05/28 02:44:15;;;;;;;7.07;5.03;;;3.50;99.90;;;;;;2089858;28;20177;-69
2021/05/28 02:45:16;;;;;;;7.60;5.03;;;3.50;99.90;;;;;;2090059;28;20200;-69
2021/05/28 02:46:17;;;;;;;5.32;4.68;;;3.40;99.90;;;;;;2096817;28;20571;-68
2021/05/28 02:47:20;;;;;;;7.10;5.25;;;3.40;99.90;;;;;;2082185;28;20242;-69
2021/05/28 02:48:21;;;;;;;5.30;4.80;;;3.40;99.90;;;;;;2082172;28;20569;-67
2021/05/28 02:49:22;;;;;;;5.83;5.00;;;3.40;99.90;;;;;;2089885;28;20193;-69
2021/05/28 02:50:23;;;;;;;7.70;5.40;;;3.40;99.90;;;;;;2085531;28;20816;-68
2021/05/28 02:51:24;;;;;;;9.15;4.85;;;3.50;99.90;;;;;;2085498;28;20717;-68
2021/05/28 02:52:25;;;;;;;5.53;4.67;;;3.50;99.90;;;;;;2085781;28;20197;-68
2021/05/28 02:53:32;;;;;;;4.65;4.25;;;3.50;99.90;;;;;;2087236;28;20212;-68
2021/05/28 02:54:33;;;;;;;6.18;4.60;;;3.50;99.90;;;;;;2089902;28;20178;-68
2021/05/28 02:55:34;;;;;;;6.20;4.83;;;3.40;99.90;;;;;;2090349;28;20180;-68
2021/05/28 02:56:34;;;;;;;5.53;4.50;;;3.40;99.90;;;;;;2090425;28;20712;-68
2021/05/28 02:57:36;;;;;;;8.00;4.57;;;3.40;99.90;;;;;;2090588;28;20203;-68
2021/05/28 02:58:37;;;;;;;5.07;4.43;;;3.40;99.90;;;;;;2090422;28;20183;-69
2021/05/28 02:59:39;;;;;;;6.40;4.87;;;3.40;99.90;;;;;;2090508;28;20180;-68
2021/05/28 03:00:40;;;;;;;4.47;4.07;;;3.40;99.90;;;;;;2089992;28;20235;-68
2021/05/28 03:01:41;;;;;;;4.57;4.13;;;3.30;99.90;;;;;;2090049;28;20177;-68
2021/05/28 03:02:41;;;;;;;5.60;4.53;;;3.40;99.90;;;;;;2090386;28;20199;-68
2021/05/28 03:03:42;;;;;;;5.03;4.53;;;3.40;99.90;;;;;;2090482;28;20180;-68
2021/05/28 03:04:43;;;;;;;4.40;3.83;;;3.30;99.90;;;;;;2090303;28;20695;-68
2021/05/28 03:05:44;;;;;;;5.47;3.90;;;3.30;99.90;;;;;;2090323;28;20263;-68
2021/05/28 03:06:45;;;;;;;4.47;4.07;;;3.30;99.90;;;;;;2090307;28;20180;-68
2021/05/28 03:07:45;;;;;;;4.57;3.80;;;3.30;99.90;;;;;;2090276;28;20467;-68
2021/05/28 03:08:46;;;;;;;4.73;3.87;;;3.30;99.90;;;;;;2090315;28;20188;-68
2021/05/28 03:09:47;;;;;;;6.30;4.10;;;3.30;99.90;;;;;;2090348;28;20196;-68
2021/05/28 03:10:48;;;;;;;6.07;4.27;;;3.20;99.90;;;;;;2090301;28;20554;-68
2021/05/28 03:11:48;;;;;;;5.03;4.07;;;3.20;99.90;;;;;;2089909;28;20176;-68
2021/05/28 03:12:49;;;;;;;4.63;3.90;;;3.10;99.90;;;;;;2089799;28;20173;-68
2021/05/28 03:13:50;;;;;;;4.63;3.90;;;3.10;99.90;;;;;;2089592;28;20223;-68
2021/05/28 03:14:50;;;;;;;4.23;3.83;;;3.10;99.90;;;;;;2090584;28;20230;-68
2021/05/28 03:15:51;;;;;;;6.00;4.70;;;3.00;99.90;;;;;;2089529;28;20530;-68
2021/05/28 03:16:52;;;;;;;3.93;3.53;;;3.00;99.90;;;;;;2089684;28;20212;-67
2021/05/28 03:17:53;;;;;;;4.20;3.80;;;3.10;99.90;;;;;;2089296;28;20208;-68
2021/05/28 03:18:57;;;;;;;4.88;3.80;;;3.10;99.90;;;;;;2081374;28;20773;-68
2021/05/28 03:19:58;;;;;;;5.28;4.60;;;3.00;99.90;;;;;;2089586;28;20588;-68
2021/05/28 03:22:31;;;;;;;5.72;3.95;;;3.10;99.90;;;;;;2090345;28;20183;-68
2021/05/28 03:22:34;;;;;;;4.80;4.30;;;3.10;99.90;;;;;;2084511;28;20192;-68
2021/05/28 03:23:36;;;;;;;5.20;4.07;;;3.10;99.90;;;;;;2090073;28;20199;-68
2021/05/28 03:24:36;;;;;;;5.40;3.95;;;3.10;99.90;;;;;;2090182;28;20290;-68
2021/05/28 03:25:38;;;;;;;6.13;4.53;;;3.10;99.90;;;;;;2090104;28;20282;-68
2021/05/28 03:26:39;;;;;;;6.55;5.20;;;3.10;99.90;;;;;;2090159;28;20176;-68
2021/05/28 03:27:40;;;;;;;6.33;5.67;;;3.10;99.90;;;;;;2088968;28;20192;-68
2021/05/28 03:28:41;;;;;;;8.80;5.63;;;3.10;99.90;;;;;;2090173;28;20177;-68
2021/05/28 03:29:42;;;;;;;6.80;5.30;;;3.10;99.90;;;;;;2089492;28;20180;-68
2021/05/28 03:30:42;;;;;;;5.63;5.13;;;3.20;99.90;;;;;;2089474;28;20204;-68
2021/05/28 03:31:43;;;;;;;6.17;4.80;;;3.20;99.90;;;;;;2089277;28;20182;-69
2021/05/28 03:32:44;;;;;;;6.43;5.33;;;3.20;99.90;;;;;;2090092;28;20177;-68
2021/05/28 03:33:45;;;;;;;7.25;5.38;;;3.20;99.90;;;;;;2090078;28;20602;-68
2021/05/28 03:34:46;;;;;;;7.85;5.90;;;3.20;99.90;;;;;;2090027;28;20181;-68
2021/05/28 03:35:47;;;;;;;7.40;5.70;;;3.30;99.90;;;;;;2091894;28;20188;-68
2021/05/28 03:36:48;;;;;;;7.20;5.47;;;3.30;99.90;;;;;;2089359;28;20300;-68
2021/05/28 03:37:49;;;;;;;6.25;5.57;;;3.30;99.90;;;;;;2089972;28;20211;-68
2021/05/28 03:38:50;;;;;;;7.43;4.90;;;3.30;99.90;;;;;;2089427;28;20704;-68
2021/05/28 03:39:51;;;;;;;4.57;4.17;;;3.30;99.90;;;;;;2089450;28;20263;-68
2021/05/28 03:40:52;;;;;;;4.70;4.30;;;3.30;99.90;;;;;;2089998;28;20639;-68
2021/05/28 03:41:53;;;;;;;5.38;3.80;;;3.30;99.90;;;;;;2089271;28;20246;-68
2021/05/28 03:42:54;;;;;;;4.63;3.90;;;3.30;99.90;;;;;;2089403;28;20203;-68
2021/05/28 03:43:54;;;;;;;6.63;4.07;;;3.20;99.90;;;;;;2089446;28;20222;-68
2021/05/28 03:44:55;;;;;;;5.97;3.70;;;3.20;99.90;;;;;;2089156;28;20208;-68
2021/05/28 03:45:56;;;;;;;4.13;3.47;;;3.20;99.90;;;;;;2090061;28;20330;-68
2021/05/28 03:46:57;;;;;;;5.00;3.67;;;3.20;99.90;;;;;;2089952;28;20226;-68
2021/05/28 03:47:57;;;;;;;5.13;3.80;;;3.10;99.90;;;;;;2089362;28;20204;-68
2021/05/28 03:48:58;;;;;;;4.40;3.60;;;3.10;99.90;;;;;;2089374;28;20179;-68
2021/05/28 03:49:59;;;;;;;5.00;3.67;;;3.10;99.90;;;;;;2090158;28;20186;-68
2021/05/28 03:51:00;;;;;;;4.20;3.60;;;3.00;99.90;;;;;;2089436;28;20199;-68
2021/05/28 03:52:01;;;;;;;3.40;3.10;;;3.00;99.90;;;;;;2089212;28;20275;-68
2021/05/28 03:53:02;;;;;;;3.80;3.30;;;3.00;99.90;;;;;;2089290;28;20177;-68
2021/05/28 03:54:03;;;;;;;4.40;4.00;;;3.10;99.90;;;;;;2090005;28;20186;-68
2021/05/28 03:55:05;;;;;;;3.92;3.53;;;3.00;99.90;;;;;;2090065;28;20176;-68
2021/05/28 03:56:06;;;;;;;5.30;4.28;;;3.10;99.90;;;;;;2089940;28;20215;-68
2021/05/28 03:57:07;;;;;;;5.10;4.30;;;3.10;99.90;;;;;;2089229;28;20307;-68
2021/05/28 03:58:08;;;;;;;5.55;4.30;;;3.10;99.90;;;;;;2089279;28;20626;-69
2021/05/28 03:59:09;;;;;;;5.33;4.20;;;3.10;99.90;;;;;;2089436;28;20187;-68
2021/05/28 04:00:10;;;;;;;5.03;4.30;;;3.10;99.90;;;;;;2089420;28;20573;-68
2021/05/28 04:01:11;;;;;;;8.30;5.00;;;3.20;99.90;;;;;;2089050;28;20184;-68
2021/05/28 04:02:12;;;;;;;8.53;5.53;;;3.20;99.90;;;;;;2080884;28;20570;-68
2021/05/28 04:03:12;;;;;;;5.33;4.83;;;3.20;99.90;;;;;;2080960;28;20741;-70
2021/05/28 04:04:13;;;;;;;5.70;4.30;;;3.20;99.90;;;;;;2089330;28;20641;-67
2021/05/28 04:05:15;;;;;;;6.80;5.60;;;3.30;99.90;;;;;;2089240;28;20259;-68
2021/05/28 04:06:15;;;;;;;5.97;4.45;;;3.30;99.90;;;;;;2081191;28;20185;-67
2021/05/28 04:07:16;;;;;;;4.47;4.07;;;3.30;99.90;;;;;;2089006;28;20176;-68
2021/05/28 04:08:17;;;;;;;5.03;3.90;;;3.40;99.90;;;;;;2089953;28;20280;-68
2021/05/28 04:09:18;;;;;;;5.07;4.57;;;3.40;99.90;;;;;;2090062;28;20233;-68
2021/05/28 04:10:18;;;;;;;4.40;4.00;;;3.40;99.90;;;;;;2089829;28;20176;-68
2021/05/28 04:11:19;;;;;;;6.30;4.20;;;3.30;99.90;;;;;;2089005;28;20185;-68
2021/05/28 04:12:20;;;;;;;4.60;4.20;;;3.40;99.90;;;;;;2089299;28;20181;-68
2021/05/28 04:13:20;;;;;;;5.87;4.50;;;3.40;99.90;;;;;;2089324;28;20177;-69
2021/05/28 04:14:21;;;;;;;4.13;3.73;;;3.40;99.90;;;;;;2089401;28;20267;-69
2021/05/28 04:15:22;;;;;;;4.10;3.70;;;3.40;99.90;;;;;;2089488;28;20184;-69
2021/05/28 04:16:23;;;;;;;3.63;3.30;;;3.50;99.90;;;;;;2089924;28;20720;-68
2021/05/28 04:17:23;;;;;;;6.50;3.60;;;3.40;99.90;;;;;;2089795;28;20200;-68
2021/05/28 04:18:24;;;;;;;4.67;3.40;;;3.50;99.90;;;;;;2089713;28;20612;-68
2021/05/28 04:19:25;;;;;;;4.23;3.83;;;3.40;99.90;;;;;;2089876;28;20181;-68
2021/05/28 04:20:26;;;;;;;5.23;3.90;;;3.40;99.90;;;;;;2089651;28;20782;-68
2021/05/28 04:21:27;;;;;;;4.37;3.50;;;3.40;99.90;;;;;;2089673;28;20172;-68
2021/05/28 04:22:28;;;;;;;6.05;4.40;;;3.50;99.90;;;;;;2089118;28;20204;-68
2021/05/28 04:23:28;;;;;;;5.25;4.57;;;3.50;99.90;;;;;;2089198;28;20188;-68
2021/05/28 04:24:29;;;;;;;5.37;4.53;;;3.50;99.90;;;;;;2089728;28;20183;-68
2021/05/28 04:25:30;;;;;;;4.23;3.80;;;3.50;99.90;;;;;;2089884;28;20177;-68
2021/05/28 04:26:30;;;;;;;5.87;4.30;;;3.60;99.90;;;;;;2089681;28;20223;-68
2021/05/28 04:27:31;;;;;;;5.27;3.70;;;3.60;99.90;;;;;;2089567;28;20314;-68
2021/05/28 04:28:32;;;;;;;4.47;4.07;;;3.70;99.90;;;;;;2089499;28;20183;-68
2021/05/28 04:29:33;;;;;;;4.13;3.73;;;3.70;99.90;;;;;;2089563;28;20186;-68
2021/05/28 04:30:33;;;;;;;4.83;4.10;;;3.70;99.90;;;;;;2089082;28;20204;-68
2021/05/28 04:31:34;;;;;;;5.07;3.57;;;3.70;99.90;;;;;;2088900;28;20274;-68
2021/05/28 04:32:35;;;;;;;4.00;3.30;;;3.70;99.90;;;;;;2089528;28;20184;-68
2021/05/28 04:33:35;;;;;;;4.07;3.43;;;3.70;99.90;;;;;;2089668;28;20792;-68
2021/05/28 04:34:37;;;;;;;5.00;3.53;;;3.70;99.90;;;;;;2089557;28;20189;-68
2021/05/28 04:35:38;;;;;;;4.82;3.50;;;3.70;99.90;;;;;;2089535;28;20268;-68
2021/05/28 04:36:39;;;;;;;6.33;3.70;;;3.70;99.90;;;;;;2089368;28;20562;-68
2021/05/28 04:37:39;;;;;;;4.00;3.20;;;3.70;99.90;;;;;;2088918;28;20203;-68
2021/05/28 04:38:40;;;;;;;3.73;3.40;;;3.70;99.90;;;;;;2088688;28;20201;-68
2021/05/28 04:39:41;;;;;;;4.87;3.30;;;3.70;99.90;;;;;;2089559;28;20181;-68
2021/05/28 04:40:42;;;;;;;4.40;3.60;;;3.70;99.90;;;;;;2088675;28;20235;-68
2021/05/28 04:41:43;;;;;;;4.80;3.78;;;3.70;99.90;;;;;;2080755;28;20929;-68
2021/05/28 04:42:44;;;;;;;8.13;4.40;;;3.70;99.90;;;;;;2089081;28;20182;-68
2021/05/28 04:43:45;;;;;;;5.90;4.90;;;3.80;99.90;;;;;;2089599;28;20263;-69
2021/05/28 04:44:45;;;;;;;8.17;5.40;;;3.80;99.90;;;;;;2089490;28;20245;-68
2021/05/28 04:45:46;;;;;;;7.63;4.70;;;3.80;99.90;;;;;;2088855;28;20268;-68
2021/05/28 04:46:48;;;;;;;5.18;4.68;;;3.80;99.90;;;;;;2080675;28;20174;-69
2021/05/28 04:47:49;;;;;;;6.25;4.65;;;3.80;99.90;;;;;;2089021;28;20232;-67
2021/05/28 04:48:49;;;;;;;5.87;4.17;;;3.80;99.90;;;;;;2089542;28;20182;-68
2021/05/28 04:49:50;;;;;;;5.97;4.97;;;3.90;99.90;;;;;;2089512;28;20422;-68
2021/05/28 04:50:51;;;;;;;5.17;4.67;;;3.90;99.90;;;;;;2086196;28;20192;-67
2021/05/28 04:51:51;;;;;;;7.03;5.07;;;3.90;99.90;;;;;;2086512;28;20673;-69
2021/05/28 04:52:52;;;;;;;5.90;4.83;;;3.90;99.90;;;;;;2083597;28;20190;-69
2021/05/28 04:53:53;;;;;;;6.47;4.93;;;4.00;99.90;;;;;;2081164;28;20184;-67
2021/05/28 04:54:54;;;;;;;5.20;4.70;;;4.00;99.90;;;;;;2081397;28;20195;-67
2021/05/28 04:55:54;;;;;;;5.67;4.40;;;4.00;99.90;;;;;;2081168;28;20170;-68
2021/05/28 04:56:55;;;;;;;6.13;4.60;;;4.10;99.90;;;;;;2081148;28;20289;-68
2021/05/28 04:57:56;;;;;;;7.10;4.30;;;4.10;99.90;;;;;;2080978;28;20289;-68
2021/05/28 04:58:57;;;;;;;5.90;5.30;;;4.10;99.90;;;;;;2081291;28;20315;-68
2021/05/28 04:59:57;;;;;;;6.90;5.13;;;4.20;99.90;;;;;;2081044;28;20510;-68
2021/05/28 05:00:58;;;;;;;6.43;4.93;;;4.20;99.90;;;;;;2081275;28;20167;-67
2021/05/28 05:01:59;;;;;;;5.03;4.60;;;4.20;99.90;;;;;;2080997;28;20171;-67
2021/05/28 05:02:59;;;;;;;6.83;5.53;;;4.20;99.90;;;;;;2081014;28;20209;-67
2021/05/28 05:04:00;;;;;;;8.57;5.40;;;4.20;99.90;;;;;;2081138;28;20182;-68
2021/05/28 05:05:01;;;;;;;6.23;4.70;;;4.30;99.90;;;;;;2081151;28;20180;-68
2021/05/28 05:06:03;;;;;;;6.83;5.20;;;4.30;99.90;;;;;;2080498;28;20178;-68
2021/05/28 05:07:03;;;;;;;7.00;4.97;;;4.30;99.90;;;;;;2080549;28;20197;-68
2021/05/28 05:08:04;;;;;;;5.57;5.00;;;4.30;99.90;;;;;;2080783;28;20210;-69
2021/05/28 05:09:05;;;;;;;6.87;5.60;;;4.30;99.90;;;;;;2081082;28;20173;-69
2021/05/28 05:10:07;;;;;;;8.27;5.72;;;4.30;99.90;;;;;;2080839;28;20182;-69
2021/05/28 05:11:09;;;;;;;6.00;5.40;;;4.40;99.90;;;;;;2080235;28;20186;-69
2021/05/28 05:12:10;;;;;;;5.57;4.97;;;4.40;99.90;;;;;;2080233;28;20262;-69
2021/05/28 05:13:15;;;;;;;7.35;4.88;;;4.50;99.90;;;;;;2080972;28;20191;-69
2021/05/28 05:14:15;;;;;;;7.35;4.80;;;4.50;99.90;;;;;;2082212;28;20746;-69
2021/05/28 05:15:16;;;;;;;10.23;5.47;;;4.50;99.90;;;;;;2081622;28;20224;-69
2021/05/28 05:16:17;;;;;;;14.37;5.30;;;4.50;99.90;;;;;;2081317;28;20216;-69
2021/05/28 05:17:18;;;;;;;11.37;5.40;;;4.50;99.90;;;;;;2081843;28;20462;-69
2021/05/28 05:18:18;;;;;;;13.30;4.73;;;4.60;99.90;;;;;;2081948;28;20630;-69
2021/05/28 05:19:19;;;;;;;8.53;4.53;;;4.60;99.90;;;;;;2082222;28;20182;-69
2021/05/28 05:20:20;;;;;;;9.17;5.17;;;4.60;99.90;;;;;;2082199;28;20325;-69
2021/05/28 05:21:20;;;;;;;7.93;4.93;;;4.60;99.90;;;;;;2081374;28;20263;-69
2021/05/28 05:22:21;;;;;;;10.10;4.90;;;4.60;99.90;;;;;;2081479;28;20187;-69
2021/05/28 05:23:22;;;;;;;6.03;4.23;;;4.70;99.90;;;;;;2081613;28;20175;-69